Time;durP1;ratioP1;P1;durP2;ratioP2;P2;SDS_P1;SDS_P2;PMS_P1;PMS_P2;Temp;Humidity;BMP_temperature;BMP_pressure;BME280_temperature;BME280_humidity;BME280_pressure;Samples;Min_cycle;Max_cycle;Signal;HPM_P1;HPM_P2
2024/03/19 00:01:49;;;;;;;2.17;1.27;;;;;;;;;;5061153;28;20232;-84
2024/03/19 00:04:16;;;;;;;1.30;0.83;;;;;;;;;;5043401;28;20240;-85
2024/03/19 00:06:42;;;;;;;1.70;1.37;;;;;;;;;;5061729;28;20213;-85
2024/03/19 00:09:08;;;;;;;1.27;1.03;;;;;;;;;;5043098;28;20237;-84
2024/03/19 00:11:34;;;;;;;1.67;1.57;;;;;;;;;;5059681;28;20233;-84
2024/03/19 00:14:01;;;;;;;0.50;0.50;;;;;;;;;;5059008;28;20233;-85
2024/03/19 00:16:27;;;;;;;1.23;1.13;;;;;;;;;;5058986;28;20239;-84
2024/03/19 00:18:56;;;;;;;0.83;0.83;;;;;;;;;;5059568;28;20807;-84
2024/03/19 00:21:22;;;;;;;2.53;1.07;;;;;;;;;;5060535;28;20213;-84
2024/03/19 00:23:48;;;;;;;1.83;1.73;;;;;;;;;;5077068;28;20227;-84
2024/03/19 00:26:14;;;;;;;1.23;1.23;;;;;;;;;;5058052;28;20233;-85
2024/03/19 00:28:40;;;;;;;1.87;1.40;;;;;;;;;;5060122;28;20237;-85
2024/03/19 00:31:06;;;;;;;2.20;0.97;;;;;;;;;;5061038;28;20247;-85
2024/03/19 00:33:32;;;;;;;3.03;2.33;;;;;;;;;;5059625;28;20221;-85
2024/03/19 00:35:59;;;;;;;1.00;0.60;;;;;;;;;;5059828;28;20595;-86
2024/03/19 00:38:26;;;;;;;1.07;1.03;;;;;;;;;;5043470;28;20256;-85
2024/03/19 00:40:52;;;;;;;1.00;1.00;;;;;;;;;;5043211;28;20283;-84
2024/03/19 00:43:18;;;;;;;1.10;1.00;;;;;;;;;;5060621;28;20229;-85
2024/03/19 00:45:44;;;;;;;25.40;1.43;;;;;;;;;;5060771;28;20205;-85
2024/03/19 00:48:10;;;;;;;2.43;2.27;;;;;;;;;;5058694;28;20241;-85
2024/03/19 00:50:36;;;;;;;4.03;2.27;;;;;;;;;;5061181;28;20319;-85
2024/03/19 00:53:03;;;;;;;2.50;2.30;;;;;;;;;;5061381;28;20229;-85
2024/03/19 00:55:29;;;;;;;1.80;1.70;;;;;;;;;;5059150;28;20237;-85
2024/03/19 00:57:55;;;;;;;5.13;2.70;;;;;;;;;;5059438;28;20193;-85
2024/03/19 01:00:22;;;;;;;0.90;0.90;;;;;;;;;;5043692;28;20209;-85
2024/03/19 01:02:48;;;;;;;1.30;1.20;;;;;;;;;;5059300;28;20216;-86
2024/03/19 01:05:14;;;;;;;2.23;1.87;;;;;;;;;;5059877;28;20225;-85
2024/03/19 01:07:41;;;;;;;1.03;0.97;;;;;;;;;;5059510;28;20712;-85
2024/03/19 01:10:08;;;;;;;1.60;1.50;;;;;;;;;;5057573;28;20217;-86
2024/03/19 01:12:34;;;;;;;2.90;2.80;;;;;;;;;;5043324;28;20256;-85
2024/03/19 01:15:01;;;;;;;4.23;2.83;;;;;;;;;;5060265;28;20272;-84
2024/03/19 01:17:27;;;;;;;2.13;2.03;;;;;;;;;;5060370;28;20237;-86
2024/03/19 01:19:53;;;;;;;0.87;0.87;;;;;;;;;;5042133;28;20582;-85
2024/03/19 01:22:19;;;;;;;2.60;1.70;;;;;;;;;;5059887;28;20225;-85
2024/03/19 01:24:45;;;;;;;4.37;2.70;;;;;;;;;;5058432;28;20209;-85
2024/03/19 01:27:12;;;;;;;14.07;1.70;;;;;;;;;;5058068;28;20233;-85
2024/03/19 01:29:38;;;;;;;2.57;2.47;;;;;;;;;;5060051;28;21074;-86
2024/03/19 01:32:04;;;;;;;2.80;2.30;;;;;;;;;;5061318;28;20225;-85
2024/03/19 01:34:30;;;;;;;16.30;2.83;;;;;;;;;;5060748;28;20229;-85
2024/03/19 01:36:57;;;;;;;2.03;1.50;;;;;;;;;;5042942;28;20247;-85
2024/03/19 01:39:23;;;;;;;3.50;3.10;;;;;;;;;;5061459;28;20283;-85
2024/03/19 01:41:53;;;;;;;4.53;2.20;;;;;;;;;;5059130;28;20228;-85
2024/03/19 01:44:19;;;;;;;7.43;2.83;;;;;;;;;;5059527;28;20308;-85
2024/03/19 01:46:45;;;;;;;4.90;2.73;;;;;;;;;;5060344;28;20748;-85
2024/03/19 01:49:12;;;;;;;4.37;2.93;;;;;;;;;;5059669;28;20236;-86
2024/03/19 01:51:39;;;;;;;4.40;2.63;;;;;;;;;;5061052;28;20205;-85
2024/03/19 01:54:05;;;;;;;3.27;2.90;;;;;;;;;;5042065;28;20229;-85
2024/03/19 01:56:32;;;;;;;4.07;3.77;;;;;;;;;;5060591;28;20340;-85
2024/03/19 01:59:01;;;;;;;11.50;1.70;;;;;;;;;;5059260;28;21152;-85
2024/03/19 02:01:28;;;;;;;3.80;2.37;;;;;;;;;;5057202;28;20660;-86
2024/03/19 02:03:55;;;;;;;4.90;3.13;;;;;;;;;;5042606;28;20871;-85
2024/03/19 02:06:21;;;;;;;5.50;3.73;;;;;;;;;;5063350;28;20288;-85
2024/03/19 02:09:20;;;;;;;5.10;2.93;;;;;;;;;;5045989;28;20225;-85
2024/03/19 02:11:46;;;;;;;2.23;2.07;;;;;;;;;;5025816;28;20241;-84
2024/03/19 02:14:12;;;;;;;15.53;4.23;;;;;;;;;;5046654;28;20264;-86
2024/03/19 02:16:38;;;;;;;8.17;2.87;;;;;;;;;;5061542;28;20237;-86
2024/03/19 02:19:05;;;;;;;6.20;3.53;;;;;;;;;;5046501;28;20744;-84
2024/03/19 02:21:32;;;;;;;7.73;4.63;;;;;;;;;;5064639;28;20217;-85
2024/03/19 02:23:59;;;;;;;4.77;3.07;;;;;;;;;;5062144;28;20233;-86
2024/03/19 02:26:30;;;;;;;10.53;3.40;;;;;;;;;;5062734;28;20236;-86
2024/03/19 02:28:56;;;;;;;3.73;3.43;;;;;;;;;;5062895;28;20349;-86
2024/03/19 02:31:24;;;;;;;3.67;2.63;;;;;;;;;;5045824;28;20237;-86
2024/03/19 02:33:51;;;;;;;3.53;3.27;;;;;;;;;;5061634;28;20233;-86
2024/03/19 02:36:17;;;;;;;3.03;2.70;;;;;;;;;;5060297;28;20209;-85
2024/03/19 02:38:43;;;;;;;7.10;4.83;;;;;;;;;;5062546;28;20688;-86
2024/03/19 02:41:09;;;;;;;4.43;3.57;;;;;;;;;;5042187;28;20226;-84
2024/03/19 02:43:37;;;;;;;4.50;2.37;;;;;;;;;;5062946;28;20228;-86
2024/03/19 02:46:03;;;;;;;2.33;1.77;;;;;;;;;;5063204;28;20323;-85
2024/03/19 02:48:29;;;;;;;5.67;3.10;;;;;;;;;;5064053;28;20281;-86
2024/03/19 02:50:55;;;;;;;4.90;3.73;;;;;;;;;;5061238;28;20236;-85
2024/03/19 02:53:22;;;;;;;4.00;3.30;;;;;;;;;;5061933;28;20233;-85
2024/03/19 02:55:49;;;;;;;6.77;3.63;;;;;;;;;;5061927;28;20232;-86
2024/03/19 02:58:18;;;;;;;9.67;2.47;;;;;;;;;;5062075;28;20232;-85
2024/03/19 03:00:44;;;;;;;4.83;3.63;;;;;;;;;;5063778;28;20209;-86
2024/03/19 03:03:10;;;;;;;2.57;2.43;;;;;;;;;;5059154;28;20673;-85
2024/03/19 03:05:37;;;;;;;3.90;2.97;;;;;;;;;;5060344;28;20610;-86
2024/03/19 03:08:03;;;;;;;5.07;3.63;;;;;;;;;;5063481;28;20677;-86
2024/03/19 03:10:29;;;;;;;4.83;4.20;;;;;;;;;;5045159;28;20236;-85
2024/03/19 03:12:55;;;;;;;2.90;2.53;;;;;;;;;;5061569;28;20271;-85
2024/03/19 03:15:22;;;;;;;2.23;2.13;;;;;;;;;;5059922;28;20212;-85
2024/03/19 03:17:49;;;;;;;3.83;3.00;;;;;;;;;;5059889;28;20320;-86
2024/03/19 03:20:15;;;;;;;4.97;4.10;;;;;;;;;;5061640;28;20241;-85
2024/03/19 03:22:41;;;;;;;5.23;4.70;;;;;;;;;;5053825;28;20240;-86
2024/03/19 03:25:15;;;;;;;4.37;3.40;;;;;;;;;;5059932;28;20503;-86
2024/03/19 03:27:44;;;;;;;4.03;2.20;;;;;;;;;;5061569;28;20276;-85
2024/03/19 03:30:12;;;;;;;4.60;4.20;;;;;;;;;;5061080;28;20631;-86
2024/03/19 03:32:39;;;;;;;9.63;4.80;;;;;;;;;;5060852;28;20283;-85
2024/03/19 03:35:06;;;;;;;5.70;4.10;;;;;;;;;;5062294;28;20274;-86
2024/03/19 03:37:32;;;;;;;3.83;3.30;;;;;;;;;;5061151;28;20229;-85
2024/03/19 03:39:58;;;;;;;11.90;4.07;;;;;;;;;;5062465;28;20220;-85
2024/03/19 03:42:25;;;;;;;4.43;2.93;;;;;;;;;;5062734;28;20194;-85
2024/03/19 03:44:51;;;;;;;5.43;3.83;;;;;;;;;;5061121;28;20233;-86
2024/03/19 03:47:17;;;;;;;13.37;4.60;;;;;;;;;;5043326;28;20728;-86
2024/03/19 03:49:45;;;;;;;6.73;3.50;;;;;;;;;;5061884;28;20267;-86
2024/03/19 03:52:11;;;;;;;3.50;2.10;;;;;;;;;;5044670;28;20264;-86
2024/03/19 03:54:37;;;;;;;5.97;3.00;;;;;;;;;;5063176;28;20705;-85
2024/03/19 03:57:04;;;;;;;4.17;3.73;;;;;;;;;;5041122;28;20232;-85
2024/03/19 03:59:31;;;;;;;5.00;2.90;;;;;;;;;;5061017;28;20294;-86
2024/03/19 04:01:57;;;;;;;5.47;3.00;;;;;;;;;;5060549;28;20685;-86
2024/03/19 04:04:23;;;;;;;4.00;3.67;;;;;;;;;;5060289;28;20232;-86
2024/03/19 04:06:49;;;;;;;6.03;3.17;;;;;;;;;;5060870;28;20618;-85
2024/03/19 04:09:15;;;;;;;8.13;3.40;;;;;;;;;;5061840;28;20226;-86
2024/03/19 04:11:42;;;;;;;11.03;5.00;;;;;;;;;;5043570;28;20580;-86
2024/03/19 04:14:08;;;;;;;7.77;4.37;;;;;;;;;;5060162;28;20321;-86
2024/03/19 04:16:35;;;;;;;5.57;4.37;;;;;;;;;;5061884;28;20286;-85
2024/03/19 04:19:01;;;;;;;4.53;3.70;;;;;;;;;;5060005;28;20479;-86
2024/03/19 04:21:27;;;;;;;4.33;2.57;;;;;;;;;;5059036;28;20209;-86
2024/03/19 04:23:53;;;;;;;11.37;4.03;;;;;;;;;;5061519;28;20306;-86
2024/03/19 04:26:20;;;;;;;3.30;3.03;;;;;;;;;;5060575;28;20236;-86
2024/03/19 04:28:46;;;;;;;4.70;3.80;;;;;;;;;;5043500;28;20724;-86
2024/03/19 04:31:12;;;;;;;6.20;3.47;;;;;;;;;;5059690;28;20311;-86
2024/03/19 04:33:38;;;;;;;3.67;2.97;;;;;;;;;;5062401;28;20220;-86
2024/03/19 04:36:04;;;;;;;3.57;3.23;;;;;;;;;;5043634;28;20232;-86
2024/03/19 04:38:30;;;;;;;5.93;4.70;;;;;;;;;;5041901;28;20727;-86
2024/03/19 04:40:56;;;;;;;5.50;3.63;;;;;;;;;;5060145;28;20229;-86
2024/03/19 04:43:22;;;;;;;4.80;3.80;;;;;;;;;;5044003;28;21107;-86
2024/03/19 04:45:49;;;;;;;4.27;3.63;;;;;;;;;;5061440;28;20292;-86
2024/03/19 04:48:15;;;;;;;8.13;4.30;;;;;;;;;;5060752;28;20664;-86
2024/03/19 04:50:41;;;;;;;3.63;2.47;;;;;;;;;;5059793;28;20225;-86
2024/03/19 04:53:07;;;;;;;3.13;2.83;;;;;;;;;;5061810;28;20237;-86
2024/03/19 04:55:33;;;;;;;3.97;3.03;;;;;;;;;;5043232;28;20581;-87
2024/03/19 04:57:59;;;;;;;9.07;3.60;;;;;;;;;;5060654;28;20266;-86
2024/03/19 05:00:25;;;;;;;5.53;3.17;;;;;;;;;;5043563;28;20205;-86
2024/03/19 05:02:52;;;;;;;6.67;5.63;;;;;;;;;;5061835;28;20225;-87
2024/03/19 05:05:18;;;;;;;5.60;2.93;;;;;;;;;;5060814;28;20236;-86
2024/03/19 05:07:44;;;;;;;3.03;2.63;;;;;;;;;;5061356;28;20232;-86
2024/03/19 05:10:10;;;;;;;5.33;4.67;;;;;;;;;;5043975;28;20243;-85
2024/03/19 05:12:36;;;;;;;9.87;3.37;;;;;;;;;;5062137;28;20221;-86
2024/03/19 05:15:06;;;;;;;8.87;3.97;;;;;;;;;;5043387;28;20689;-85
2024/03/19 05:17:32;;;;;;;5.30;3.37;;;;;;;;;;5043798;28;20229;-85
2024/03/19 05:19:58;;;;;;;4.37;3.13;;;;;;;;;;5042848;28;20251;-85
2024/03/19 05:22:25;;;;;;;6.43;2.57;;;;;;;;;;5043009;28;20271;-86
2024/03/19 05:24:51;;;;;;;5.07;2.83;;;;;;;;;;5061357;28;20300;-84
2024/03/19 05:27:17;;;;;;;5.90;2.50;;;;;;;;;;5061707;28;20208;-85
2024/03/19 05:29:46;;;;;;;2.40;2.30;;;;;;;;;;5059749;28;20315;-85
2024/03/19 05:32:12;;;;;;;5.37;3.07;;;;;;;;;;5059635;28;20225;-86
2024/03/19 05:34:38;;;;;;;3.57;3.33;;;;;;;;;;5059377;28;21041;-86
2024/03/19 05:37:04;;;;;;;2.73;2.40;;;;;;;;;;5041320;28;20727;-86
2024/03/19 05:39:30;;;;;;;4.40;3.03;;;;;;;;;;5057216;28;20216;-86
2024/03/19 05:41:56;;;;;;;5.80;2.60;;;;;;;;;;5061891;28;20244;-86
2024/03/19 05:44:23;;;;;;;6.73;2.47;;;;;;;;;;5063007;28;20239;-86
2024/03/19 05:46:50;;;;;;;14.23;3.07;;;;;;;;;;5045674;28;20229;-86
2024/03/19 05:49:16;;;;;;;4.87;3.97;;;;;;;;;;5061143;28;20229;-86
2024/03/19 05:51:42;;;;;;;3.73;2.43;;;;;;;;;;5044620;28;20209;-85
2024/03/19 05:54:08;;;;;;;9.27;3.67;;;;;;;;;;5060655;28;20310;-86
2024/03/19 05:56:34;;;;;;;6.27;3.33;;;;;;;;;;5049363;28;20666;-86
2024/03/19 05:59:00;;;;;;;2.90;2.07;;;;;;;;;;5059014;28;20236;-85
2024/03/19 06:01:26;;;;;;;5.00;3.63;;;;;;;;;;5062103;28;20237;-85
2024/03/19 06:03:52;;;;;;;3.07;2.67;;;;;;;;;;5044989;28;20316;-85
2024/03/19 06:06:19;;;;;;;3.10;2.73;;;;;;;;;;5047110;28;20205;-86
2024/03/19 06:08:45;;;;;;;4.23;3.57;;;;;;;;;;5062247;28;20654;-86
2024/03/19 06:11:11;;;;;;;5.73;3.23;;;;;;;;;;5063648;28;20236;-86
2024/03/19 06:13:37;;;;;;;4.37;3.23;;;;;;;;;;5062258;28;20317;-87
2024/03/19 06:16:05;;;;;;;11.43;2.80;;;;;;;;;;5062631;28;20210;-85
2024/03/19 06:18:31;;;;;;;6.70;3.57;;;;;;;;;;5062098;28;20213;-86
2024/03/19 06:20:57;;;;;;;3.83;2.83;;;;;;;;;;5063997;28;20243;-85
2024/03/19 06:23:26;;;;;;;7.57;4.17;;;;;;;;;;5045832;28;20267;-85
2024/03/19 06:25:53;;;;;;;5.00;2.00;;;;;;;;;;5062000;28;20281;-86
2024/03/19 06:28:19;;;;;;;3.40;2.47;;;;;;;;;;5061164;28;20287;-84
2024/03/19 06:30:45;;;;;;;3.03;2.13;;;;;;;;;;5062539;28;20213;-85
2024/03/19 06:33:12;;;;;;;4.27;3.87;;;;;;;;;;5044785;28;20534;-85
2024/03/19 06:35:38;;;;;;;6.43;4.37;;;;;;;;;;5044428;28;20233;-86
2024/03/19 06:38:04;;;;;;;6.50;2.93;;;;;;;;;;5062312;28;20693;-84
2024/03/19 06:40:33;;;;;;;4.03;3.73;;;;;;;;;;5062034;28;20229;-86
2024/03/19 06:42:59;;;;;;;6.93;3.20;;;;;;;;;;5044762;28;20208;-85
2024/03/19 06:45:32;;;;;;;5.47;3.57;;;;;;;;;;5063943;28;20201;-86
2024/03/19 06:47:58;;;;;;;5.17;3.70;;;;;;;;;;5059231;28;20236;-86
2024/03/19 06:50:25;;;;;;;3.83;2.73;;;;;;;;;;5062133;28;20311;-86
2024/03/19 06:52:51;;;;;;;3.60;3.30;;;;;;;;;;5061077;28;20237;-86
2024/03/19 06:55:20;;;;;;;4.37;3.33;;;;;;;;;;5060528;28;20236;-86
2024/03/19 06:57:46;;;;;;;4.37;3.20;;;;;;;;;;5057332;28;20288;-86
2024/03/19 07:00:18;;;;;;;3.53;2.63;;;;;;;;;;5056454;28;20306;-86
2024/03/19 07:02:44;;;;;;;5.30;4.10;;;;;;;;;;5059737;28;20680;-88
2024/03/19 07:05:12;;;;;;;4.83;2.77;;;;;;;;;;5053628;28;20232;-86
2024/03/19 07:07:39;;;;;;;5.07;3.53;;;;;;;;;;5015500;28;20263;-88
2024/03/19 07:10:05;;;;;;;4.47;3.80;;;;;;;;;;5058419;28;20197;-87
2024/03/19 09:27:39;;;;;;;;;;;;;;;;;;;;;
2024/03/19 09:30:24;;;;;;;5.10;1.90;;;;;;;;;;4940877;29;20229;-92
2024/03/19 09:32:59;;;;;;;2.23;1.83;;;;;;;;;;4925545;29;20229;-90
2024/03/19 09:35:30;;;;;;;1.97;1.77;;;;;;;;;;4940988;29;20212;-90
2024/03/19 09:38:03;;;;;;;2.20;2.00;;;;;;;;;;4941253;29;20193;-91
2024/03/19 09:40:33;;;;;;;1.80;1.70;;;;;;;;;;4941793;29;20225;-89
2024/03/19 09:43:06;;;;;;;3.95;2.13;;;;;;;;;;4939915;29;20437;-91
2024/03/19 09:45:41;;;;;;;6.13;2.57;;;;;;;;;;4941242;29;20201;-90
2024/03/19 09:48:25;;;;;;;3.60;1.10;;;;;;;;;;4941477;29;20198;-90
2024/03/19 09:51:00;;;;;;;3.50;1.70;;;;;;;;;;4941409;29;20305;-92
2024/03/19 09:53:36;;;;;;;4.60;2.23;;;;;;;;;;4940763;29;20260;-90
2024/03/19 09:56:05;;;;;;;2.67;2.27;;;;;;;;;;4941150;29;20182;-90
2024/03/19 09:58:34;;;;;;;2.73;1.80;;;;;;;;;;4942054;29;20237;-90
2024/03/19 10:01:05;;;;;;;1.23;1.13;;;;;;;;;;4941077;29;20273;-93
2024/03/19 10:03:34;;;;;;;3.47;2.03;;;;;;;;;;4926121;29;20186;-91
2024/03/19 10:06:23;;;;;;;1.73;1.47;;;;;;;;;;4941413;29;20214;-93
2024/03/19 10:09:05;;;;;;;3.73;1.97;;;;;;;;;;4940831;29;20205;-91
2024/03/19 10:11:34;;;;;;;1.77;1.47;;;;;;;;;;4940414;29;20209;-89
2024/03/19 10:14:07;;;;;;;2.47;1.17;;;;;;;;;;4940268;29;20494;-90
2024/03/19 10:16:36;;;;;;;2.87;1.73;;;;;;;;;;4941127;29;20253;-89
2024/03/19 10:19:18;;;;;;;2.03;1.03;;;;;;;;;;4941820;29;20217;-89
2024/03/19 10:21:57;;;;;;;1.37;1.07;;;;;;;;;;4940374;29;20553;-91
2024/03/19 10:24:44;;;;;;;1.30;1.20;;;;;;;;;;4940141;29;20198;-90
2024/03/19 10:27:18;;;;;;;3.17;2.57;;;;;;;;;;4937121;29;20577;-89
2024/03/19 10:29:45;;;;;;;3.03;1.33;;;;;;;;;;4938197;29;20195;-90
2024/03/19 10:32:36;;;;;;;2.20;1.17;;;;;;;;;;4937116;29;20262;-89
2024/03/19 10:35:12;;;;;;;3.73;1.70;;;;;;;;;;4938253;29;20237;-90
2024/03/19 10:37:39;;;;;;;2.40;1.30;;;;;;;;;;4937612;29;20285;-86
2024/03/19 10:40:12;;;;;;;2.33;1.33;;;;;;;;;;4938184;29;20206;-87
2024/03/19 10:42:40;;;;;;;1.93;1.17;;;;;;;;;;4937402;29;20202;-88
2024/03/19 10:45:12;;;;;;;0.67;0.60;;;;;;;;;;4936918;29;20622;-87
2024/03/19 10:47:38;;;;;;;1.27;1.23;;;;;;;;;;4938168;29;20190;-88
2024/03/19 10:50:05;;;;;;;2.03;1.30;;;;;;;;;;4938278;29;20202;-87
2024/03/19 10:52:31;;;;;;;1.23;1.13;;;;;;;;;;4937645;29;20202;-89
2024/03/19 10:54:58;;;;;;;0.80;0.67;;;;;;;;;;4936946;29;20217;-85
2024/03/19 10:57:24;;;;;;;0.70;0.70;;;;;;;;;;4936505;29;20334;-87
2024/03/19 10:59:50;;;;;;;1.63;1.20;;;;;;;;;;4936702;29;20206;-87
2024/03/19 11:02:21;;;;;;;2.57;0.50;;;;;;;;;;4938167;29;20195;-87
2024/03/19 11:04:57;;;;;;;0.90;0.87;;;;;;;;;;4936727;29;20234;-88
2024/03/19 11:07:26;;;;;;;1.53;1.43;;;;;;;;;;4937352;29;20248;-88
2024/03/19 11:09:53;;;;;;;1.60;1.50;;;;;;;;;;4937779;29;20243;-89
2024/03/19 11:12:23;;;;;;;3.50;1.17;;;;;;;;;;4937493;29;20202;-92
2024/03/19 11:14:56;;;;;;;1.57;1.47;;;;;;;;;;4936253;29;20237;-90
2024/03/19 11:17:27;;;;;;;4.00;1.63;;;;;;;;;;4936104;29;20574;-92
2024/03/19 11:19:57;;;;;;;4.83;1.73;;;;;;;;;;4936271;29;20202;-91
2024/03/19 11:22:31;;;;;;;1.40;1.10;;;;;;;;;;4936617;29;20206;-89
2024/03/19 11:24:59;;;;;;;1.43;1.20;;;;;;;;;;4937781;29;20576;-91
2024/03/19 11:27:32;;;;;;;2.87;2.37;;;;;;;;;;4935917;29;20206;-88
2024/03/19 11:30:05;;;;;;;2.10;1.23;;;;;;;;;;4937648;29;20202;-92
2024/03/19 11:32:44;;;;;;;;;;;;;;;;;;;;;
2024/03/19 11:35:23;;;;;;;2.43;2.23;;;;;;;;;;4936995;29;20293;-87
2024/03/19 11:37:50;;;;;;;4.13;1.80;;;;;;;;;;4934530;29;20205;-87
2024/03/19 11:40:18;;;;;;;1.37;1.27;;;;;;;;;;4935439;29;20213;-89
2024/03/19 11:42:49;;;;;;;2.00;1.77;;;;;;;;;;4935383;29;20237;-88
2024/03/19 11:45:19;;;;;;;2.00;1.77;;;;;;;;;;4937554;29;20186;-90
2024/03/19 11:47:52;;;;;;;4.47;2.07;;;;;;;;;;4935744;29;20281;-90
2024/03/19 11:50:19;;;;;;;2.27;1.63;;;;;;;;;;4935621;29;20585;-89
2024/03/19 11:52:46;;;;;;;1.63;1.37;;;;;;;;;;4935254;29;20225;-86
2024/03/19 11:55:12;;;;;;;3.57;2.13;;;;;;;;;;4936422;29;20646;-86
2024/03/19 11:57:38;;;;;;;3.03;1.50;;;;;;;;;;4936852;29;20272;-86
2024/03/19 12:00:10;;;;;;;1.80;1.70;;;;;;;;;;4935386;29;20241;-88
2024/03/19 12:02:37;;;;;;;3.60;1.73;;;;;;;;;;4937018;29;20280;-86
2024/03/19 12:05:03;;;;;;;3.80;2.27;;;;;;;;;;4935576;29;20265;-88
2024/03/19 12:07:29;;;;;;;3.70;1.70;;;;;;;;;;4935069;29;20313;-86
2024/03/19 12:09:59;;;;;;;4.93;1.73;;;;;;;;;;4935936;29;20238;-91
2024/03/19 12:12:27;;;;;;;2.27;2.00;;;;;;;;;;4935180;29;20621;-86
2024/03/19 12:14:53;;;;;;;6.20;5.47;;;;;;;;;;4935267;29;20206;-85
2024/03/19 12:17:19;;;;;;;38.77;34.60;;;;;;;;;;4935375;29;20253;-87
2024/03/19 12:19:45;;;;;;;3.90;2.37;;;;;;;;;;4935350;29;20206;-90
2024/03/19 12:22:16;;;;;;;6.33;3.57;;;;;;;;;;4934870;29;20245;-89
2024/03/19 12:24:48;;;;;;;12.43;3.63;;;;;;;;;;4935458;29;20202;-91
2024/03/19 12:27:14;;;;;;;5.20;2.77;;;;;;;;;;4935188;29;20222;-87
2024/03/19 12:29:40;;;;;;;13.73;3.90;;;;;;;;;;4934986;29;20664;-88
2024/03/19 12:32:25;;;;;;;6.23;3.00;;;;;;;;;;4936549;29;20301;-87
2024/03/19 12:35:05;;;;;;;10.20;3.93;;;;;;;;;;4934871;29;20229;-90
2024/03/19 12:37:33;;;;;;;3.87;3.00;;;;;;;;;;4935973;29;20189;-89
2024/03/19 12:40:00;;;;;;;6.90;3.97;;;;;;;;;;4935127;29;20253;-90
2024/03/19 12:42:26;;;;;;;6.83;2.40;;;;;;;;;;4934890;29;20206;-85
2024/03/19 12:44:52;;;;;;;4.80;3.13;;;;;;;;;;4934686;29;20225;-86
2024/03/19 12:47:18;;;;;;;8.30;2.73;;;;;;;;;;4934770;29;20206;-87
2024/03/19 12:49:44;;;;;;;4.17;3.77;;;;;;;;;;4935661;29;20218;-87
2024/03/19 12:52:11;;;;;;;3.97;2.57;;;;;;;;;;4918919;29;20206;-91
2024/03/19 12:54:38;;;;;;;5.23;2.67;;;;;;;;;;4919147;29;20540;-88
2024/03/19 12:57:04;;;;;;;2.97;2.77;;;;;;;;;;4934478;29;20244;-88
2024/03/19 12:59:30;;;;;;;4.13;1.87;;;;;;;;;;4935671;29;20206;-87
2024/03/19 13:01:57;;;;;;;3.57;3.23;;;;;;;;;;4934483;29;20209;-87
2024/03/19 13:04:23;;;;;;;7.07;2.77;;;;;;;;;;4918665;29;20654;-87
2024/03/19 13:06:50;;;;;;;3.87;2.97;;;;;;;;;;4935598;29;20241;-89
2024/03/19 13:09:25;;;;;;;8.80;3.70;;;;;;;;;;4934943;29;20202;-87
2024/03/19 13:11:51;;;;;;;4.30;3.33;;;;;;;;;;4935357;29;20197;-86
2024/03/19 13:14:18;;;;;;;4.27;3.07;;;;;;;;;;4935366;29;20238;-87
2024/03/19 13:16:44;;;;;;;3.53;3.00;;;;;;;;;;4934276;29;20202;-87
2024/03/19 13:19:11;;;;;;;4.57;2.90;;;;;;;;;;4934717;29;20210;-89
2024/03/19 13:21:37;;;;;;;4.57;3.33;;;;;;;;;;4934365;29;20205;-92
2024/03/19 13:24:04;;;;;;;8.60;3.47;;;;;;;;;;4935110;29;20253;-88
2024/03/19 13:26:30;;;;;;;8.67;4.10;;;;;;;;;;4934884;29;20261;-88
2024/03/19 13:28:59;;;;;;;5.47;3.47;;;;;;;;;;4934268;29;20212;-89
2024/03/19 13:31:25;;;;;;;3.73;3.30;;;;;;;;;;4918763;29;20202;-87
2024/03/19 13:33:51;;;;;;;7.17;3.17;;;;;;;;;;4935140;29;20265;-88
2024/03/19 13:36:21;;;;;;;4.33;2.87;;;;;;;;;;4934359;29;20202;-89
2024/03/19 13:38:51;;;;;;;4.23;3.30;;;;;;;;;;4935216;29;20288;-88
2024/03/19 13:41:19;;;;;;;2.93;2.33;;;;;;;;;;4935443;29;20202;-88
2024/03/19 13:43:45;;;;;;;4.87;2.93;;;;;;;;;;4934339;29;20235;-86
2024/03/19 13:46:14;;;;;;;8.37;2.77;;;;;;;;;;4934322;29;20650;-90
2024/03/19 13:48:41;;;;;;;4.97;2.47;;;;;;;;;;4935664;29;20210;-86
2024/03/19 13:51:10;;;;;;;3.63;1.80;;;;;;;;;;4935232;29;20210;-86
2024/03/19 13:53:36;;;;;;;5.50;2.13;;;;;;;;;;4934540;29;20234;-88
2024/03/19 13:56:03;;;;;;;2.77;2.23;;;;;;;;;;4934441;29;20213;-87
2024/03/19 13:58:29;;;;;;;5.53;1.90;;;;;;;;;;4935296;29;20252;-89
2024/03/19 14:01:01;;;;;;;2.50;2.30;;;;;;;;;;4934229;29;20707;-86
2024/03/19 14:03:31;;;;;;;5.47;2.47;;;;;;;;;;4922532;29;20218;-88
2024/03/19 14:05:57;;;;;;;9.57;2.03;;;;;;;;;;4922540;29;20206;-90
2024/03/19 14:08:27;;;;;;;5.47;1.10;;;;;;;;;;4938201;29;20198;-87
2024/03/19 14:10:58;;;;;;;5.90;1.70;;;;;;;;;;4938954;29;20206;-88
2024/03/19 14:13:24;;;;;;;2.23;1.97;;;;;;;;;;4937731;29;20710;-89
2024/03/19 14:15:51;;;;;;;1.20;1.07;;;;;;;;;;4937323;29;20269;-89
2024/03/19 14:18:20;;;;;;;1.90;1.20;;;;;;;;;;4937568;29;20209;-91
2024/03/19 14:20:46;;;;;;;7.20;1.53;;;;;;;;;;4937685;29;20206;-90
2024/03/19 14:23:12;;;;;;;1.27;1.17;;;;;;;;;;4937717;29;20224;-87
2024/03/19 14:25:39;;;;;;;1.50;1.40;;;;;;;;;;4937553;29;20205;-86
2024/03/19 14:28:05;;;;;;;3.13;0.90;;;;;;;;;;4937478;29;20257;-88
2024/03/19 14:30:32;;;;;;;1.93;0.80;;;;;;;;;;4937119;29;20294;-88
2024/03/19 14:32:59;;;;;;;3.97;0.80;;;;;;;;;;4937679;29;20242;-88
2024/03/19 14:35:35;;;;;;;4.53;1.23;;;;;;;;;;4937021;29;20631;-88
2024/03/19 14:38:01;;;;;;;0.57;0.57;;;;;;;;;;4937464;29;20249;-88
2024/03/19 14:40:31;;;;;;;0.30;0.30;;;;;;;;;;4938351;29;20545;-89
2024/03/19 14:43:05;;;;;;;0.63;0.63;;;;;;;;;;4937507;29;20197;-87
2024/03/19 14:45:31;;;;;;;1.40;0.90;;;;;;;;;;4937811;29;20235;-93
2024/03/19 14:48:09;;;;;;;1.37;1.00;;;;;;;;;;4937944;29;20213;-91
2024/03/19 14:50:38;;;;;;;1.10;1.07;;;;;;;;;;4937157;29;20241;-89
2024/03/19 14:53:10;;;;;;;2.27;0.73;;;;;;;;;;4936793;29;20218;-90
2024/03/19 14:55:39;;;;;;;0.63;0.63;;;;;;;;;;4921813;29;20549;-87
2024/03/19 14:58:08;;;;;;;3.20;1.10;;;;;;;;;;4937409;29;20198;-86
2024/03/19 15:00:36;;;;;;;0.53;0.53;;;;;;;;;;4936515;29;20213;-88
2024/03/19 15:03:04;;;;;;;2.43;0.87;;;;;;;;;;4936494;29;20676;-89
2024/03/19 15:05:35;;;;;;;0.93;0.87;;;;;;;;;;4936063;29;20210;-87
2024/03/19 15:08:01;;;;;;;1.37;0.77;;;;;;;;;;4936394;29;20195;-87
2024/03/19 15:10:27;;;;;;;0.93;0.93;;;;;;;;;;4936554;29;20205;-86
2024/03/19 15:12:54;;;;;;;0.30;0.30;;;;;;;;;;4937364;29;20665;-89
2024/03/19 15:15:20;;;;;;;0.70;0.50;;;;;;;;;;4936422;29;20206;-89
2024/03/19 15:18:06;;;;;;;1.17;1.10;;;;;;;;;;4938309;29;20202;-90
2024/03/19 15:20:33;;;;;;;1.13;0.53;;;;;;;;;;4936589;29;20197;-88
2024/03/19 15:23:10;;;;;;;;;;;;;;;;;;;;;
2024/03/19 15:25:39;;;;;;;0.90;0.80;;;;;;;;;;4938345;29;20190;-88
2024/03/19 15:28:07;;;;;;;3.67;0.73;;;;;;;;;;4920738;29;20233;-88
2024/03/19 15:30:33;;;;;;;1.17;0.80;;;;;;;;;;4936889;29;20309;-85
2024/03/19 15:33:00;;;;;;;0.50;0.50;;;;;;;;;;4937008;29;20230;-87
2024/03/19 15:35:26;;;;;;;6.70;1.00;;;;;;;;;;4935819;29;20535;-84
2024/03/19 15:37:52;;;;;;;0.87;0.87;;;;;;;;;;4935952;29;20285;-84
2024/03/19 15:40:18;;;;;;;0.67;0.67;;;;;;;;;;4935878;29;20260;-84
2024/03/19 15:42:45;;;;;;;0.80;0.80;;;;;;;;;;4919754;29;20209;-86
2024/03/19 15:45:11;;;;;;;0.73;0.40;;;;;;;;;;4937083;29;20353;-87
2024/03/19 15:47:38;;;;;;;2.70;1.07;;;;;;;;;;4935572;29;20201;-85
2024/03/19 15:50:08;;;;;;;5.60;0.77;;;;;;;;;;4935532;29;20266;-86
2024/03/19 15:52:34;;;;;;;0.83;0.83;;;;;;;;;;4935718;29;20727;-86
2024/03/19 15:55:01;;;;;;;0.70;0.70;;;;;;;;;;4936372;29;20206;-86
2024/03/19 15:57:29;;;;;;;0.80;0.70;;;;;;;;;;4935472;29;20257;-84
2024/03/19 16:00:11;;;;;;;0.80;0.77;;;;;;;;;;4936437;29;20202;-85
2024/03/19 16:02:44;;;;;;;1.23;0.87;;;;;;;;;;4935288;29;20241;-85
2024/03/19 16:05:11;;;;;;;1.07;1.00;;;;;;;;;;4936469;29;20543;-84
2024/03/19 16:07:42;;;;;;;0.63;0.63;;;;;;;;;;4936423;29;20198;-84
2024/03/19 16:10:12;;;;;;;0.87;0.87;;;;;;;;;;4934970;29;20202;-89
2024/03/19 16:12:39;;;;;;;1.03;0.73;;;;;;;;;;4935201;29;20213;-86
2024/03/19 16:15:05;;;;;;;0.53;0.53;;;;;;;;;;4919081;29;20206;-84
2024/03/19 16:17:32;;;;;;;1.03;0.83;;;;;;;;;;4935836;29;20210;-83
2024/03/19 16:20:01;;;;;;;1.90;0.70;;;;;;;;;;4936411;29;20293;-88
2024/03/19 16:22:28;;;;;;;1.20;1.10;;;;;;;;;;4934716;29;20241;-87
2024/03/19 16:24:58;;;;;;;0.57;0.57;;;;;;;;;;4933936;29;20685;-83
2024/03/19 16:27:24;;;;;;;0.53;0.50;;;;;;;;;;4936082;29;20197;-84
2024/03/19 16:29:50;;;;;;;1.70;0.87;;;;;;;;;;4936364;29;20213;-85
2024/03/19 16:32:17;;;;;;;1.53;0.90;;;;;;;;;;4934431;29;20536;-87
2024/03/19 16:34:43;;;;;;;1.30;0.93;;;;;;;;;;4935793;29;20288;-84
2024/03/19 16:37:12;;;;;;;1.53;1.00;;;;;;;;;;4934039;29;20627;-84
2024/03/19 16:39:42;;;;;;;0.90;0.90;;;;;;;;;;4935472;29;20198;-86
2024/03/19 16:42:08;;;;;;;1.53;1.20;;;;;;;;;;4935529;29;20241;-87
2024/03/19 16:44:34;;;;;;;1.00;0.90;;;;;;;;;;4935505;29;20256;-85
2024/03/19 16:47:02;;;;;;;1.23;1.00;;;;;;;;;;4934696;29;20539;-85
2024/03/19 16:49:28;;;;;;;0.73;0.73;;;;;;;;;;4935756;29;20206;-83
2024/03/19 16:51:54;;;;;;;2.50;1.13;;;;;;;;;;4934436;29;20201;-84
2024/03/19 16:54:21;;;;;;;1.60;1.23;;;;;;;;;;4934239;29;20647;-83
2024/03/19 16:56:49;;;;;;;0.80;0.67;;;;;;;;;;4934293;29;20194;-83
2024/03/19 16:59:15;;;;;;;2.57;2.17;;;;;;;;;;4934038;29;20727;-85
2024/03/19 17:01:42;;;;;;;1.30;0.80;;;;;;;;;;4934262;29;20206;-82
2024/03/19 17:04:08;;;;;;;1.00;0.70;;;;;;;;;;4934432;29;20206;-85
2024/03/19 17:06:34;;;;;;;1.17;1.07;;;;;;;;;;4934273;29;20214;-80